createdAt,value
2023-05-10T00:04:35.090Z,1.30
2023-05-10T00:09:36.705Z,1.42
2023-05-10T00:14:38.287Z,1.30
2023-05-10T00:19:39.882Z,1.20
2023-05-10T00:24:41.468Z,1.50
2023-05-10T00:29:43.088Z,1.33
2023-05-10T00:34:44.699Z,1.23
2023-05-10T00:39:47.210Z,1.83
2023-05-10T00:44:49.023Z,1.40
2023-05-10T00:49:51.314Z,1.40
2023-05-10T00:54:53.777Z,1.40
2023-05-10T00:59:55.426Z,1.33
2023-05-10T01:04:57.149Z,1.30
2023-05-10T01:09:59.045Z,1.30
2023-05-10T01:15:02.554Z,1.33
2023-05-10T01:20:04.711Z,1.40
2023-05-10T01:25:27.737Z,1.20
2023-05-10T01:30:48.009Z,1.10
2023-05-10T01:36:18.677Z,1.17
2023-05-10T01:41:20.214Z,1.10
2023-05-10T01:46:34.097Z,1.17
2023-05-10T01:51:52.660Z,1.20
2023-05-10T01:57:01.135Z,1.05
2023-05-10T02:02:05.356Z,1.33
2023-05-10T02:07:07.987Z,1.02
2023-05-10T02:12:10.471Z,1.20
2023-05-10T02:17:12.890Z,1.00
2023-05-10T02:22:17.200Z,1.20
2023-05-10T02:27:21.022Z,1.35
2023-05-10T02:32:25.532Z,1.48
2023-05-10T02:37:28.415Z,1.27
2023-05-10T02:42:33.684Z,1.30
2023-05-10T02:47:35.506Z,1.25
2023-05-10T02:52:45.356Z,1.30
2023-05-10T02:57:55.010Z,1.40
2023-05-10T03:02:56.766Z,1.45
2023-05-10T03:07:58.623Z,1.10
2023-05-10T03:13:14.036Z,1.30
2023-05-10T03:18:24.338Z,1.50
2023-05-10T03:23:42.112Z,1.23
2023-05-10T03:28:45.354Z,1.70
2023-05-10T03:33:50.987Z,1.30
2023-05-10T03:38:57.972Z,1.20
2023-05-10T03:44:00.183Z,1.17
2023-05-10T03:49:01.879Z,1.45
2023-05-10T03:54:03.794Z,1.40
2023-05-10T03:59:08.426Z,1.30
2023-05-10T04:04:10.928Z,1.33
2023-05-10T04:09:12.841Z,1.40
2023-05-10T04:14:14.566Z,1.23
2023-05-10T04:19:16.163Z,1.25
2023-05-10T04:24:17.790Z,1.40
2023-05-10T04:29:19.446Z,1.20
2023-05-10T04:34:22.274Z,1.60
2023-05-10T04:39:23.909Z,1.38
2023-05-10T04:44:25.562Z,1.45
2023-05-10T04:49:27.194Z,1.50
2023-05-10T04:54:28.787Z,1.10
2023-05-10T04:59:32.718Z,1.30
2023-05-10T05:04:34.403Z,1.17
2023-05-10T05:09:36.071Z,1.17
2023-05-10T05:14:37.651Z,1.20
2023-05-10T05:19:39.334Z,1.30
2023-05-10T05:24:40.930Z,1.17
2023-05-10T05:29:42.528Z,1.02
2023-05-10T05:34:46.242Z,1.25
2023-05-10T05:39:48.261Z,1.50
2023-05-10T05:45:09.888Z,1.13
2023-05-10T05:50:11.657Z,1.10
2023-05-10T05:55:13.783Z,1.25
2023-05-10T06:00:15.698Z,1.20
2023-05-10T06:05:17.611Z,1.20
2023-05-10T06:10:19.472Z,1.33
2023-05-10T06:15:21.393Z,1.30
2023-05-10T06:20:23.005Z,1.40
2023-05-10T06:25:24.738Z,1.10
2023-05-10T06:30:30.489Z,1.30
2023-05-10T06:35:34.418Z,1.50
2023-05-10T06:40:36.952Z,1.10
2023-05-10T06:45:38.584Z,1.75
2023-05-10T06:50:40.231Z,1.17
2023-05-10T06:55:42.063Z,1.30
2023-05-10T07:00:44.771Z,1.10
2023-05-10T07:05:47.597Z,1.30
2023-05-10T07:10:49.237Z,1.20
2023-05-10T07:15:50.869Z,1.10
2023-05-10T07:20:52.630Z,1.50
2023-05-10T07:25:54.504Z,1.20
2023-05-10T07:30:56.297Z,1.40
2023-05-10T07:35:58.342Z,1.35
2023-05-10T07:40:59.915Z,1.30
2023-05-10T07:46:02.100Z,1.30
2023-05-10T07:51:03.750Z,1.08
2023-05-10T07:56:45.750Z,1.30
2023-05-10T08:01:47.448Z,1.30
2023-05-10T08:06:49.035Z,1.25
2023-05-10T08:11:51.686Z,1.10
2023-05-10T08:16:53.372Z,1.35
2023-05-10T08:21:56.576Z,1.20
2023-05-10T08:26:58.374Z,1.30
2023-05-10T08:31:59.963Z,1.50
2023-05-10T08:37:01.561Z,1.40
2023-05-10T08:42:05.568Z,1.42
2023-05-10T08:47:10.690Z,1.42
2023-05-10T08:52:15.573Z,1.58
2023-05-10T08:57:17.293Z,1.23
2023-05-10T09:02:19.889Z,1.33
2023-05-10T09:07:21.523Z,1.35
2023-05-10T09:12:24.052Z,1.40
2023-05-10T09:17:26.796Z,1.50
2023-05-10T09:22:28.535Z,1.70
2023-05-10T09:27:30.401Z,1.80
2023-05-10T09:32:42.487Z,1.30
2023-05-10T09:37:47.178Z,1.42
2023-05-10T09:42:57.533Z,1.30
2023-05-10T09:48:00.487Z,1.42
2023-05-10T09:53:04.498Z,1.67
2023-05-10T09:58:11.132Z,1.67
2023-05-10T10:03:18.017Z,1.45
2023-05-10T10:08:20.072Z,1.85
2023-05-10T10:13:21.925Z,1.33
2023-05-10T10:18:28.067Z,1.65
2023-05-10T10:23:30.100Z,1.67
2023-05-10T10:28:46.375Z,1.50
2023-05-10T10:34:00.383Z,1.50
2023-05-10T10:39:04.011Z,1.73
2023-05-10T10:50:28.731Z,1.25
2023-05-10T10:55:31.319Z,1.67
2023-05-10T11:00:36.196Z,1.35
2023-05-10T11:05:44.715Z,1.63
2023-05-10T11:10:53.368Z,1.88
2023-05-10T11:15:55.086Z,1.55
2023-05-10T11:21:00.864Z,1.70
2023-05-10T11:31:05.463Z,1.98
2023-05-10T11:36:12.213Z,1.58
2023-05-10T11:41:14.655Z,1.67
2023-05-10T11:46:18.926Z,1.60
2023-05-10T11:51:22.268Z,1.88
2023-05-10T11:56:24.683Z,1.52
2023-05-10T12:01:28.020Z,1.50
2023-05-10T12:06:32.815Z,1.50
2023-05-10T12:11:44.662Z,1.80
2023-05-10T12:16:46.700Z,1.75
2023-05-10T12:26:55.288Z,1.80
2023-05-10T12:32:01.314Z,1.97
2023-05-10T12:37:08.451Z,1.50
2023-05-10T12:42:11.557Z,1.43
2023-05-10T12:47:13.226Z,1.50
2023-05-10T12:52:16.914Z,1.30
2023-05-10T12:57:18.515Z,1.75
2023-05-10T13:02:21.049Z,1.40
2023-05-10T13:07:22.638Z,1.30
2023-05-10T13:12:25.310Z,1.50
2023-05-10T13:17:27.289Z,1.65
2023-05-10T13:22:39.731Z,1.83
2023-05-10T13:27:42.033Z,1.45
2023-05-10T13:32:43.647Z,1.30
2023-05-10T13:37:45.318Z,1.35
2023-05-10T13:42:46.953Z,2.08
2023-05-10T13:47:48.583Z,1.80
2023-05-10T13:52:50.436Z,1.30
2023-05-10T13:57:54.189Z,1.95
2023-05-10T14:02:55.883Z,1.88
2023-05-10T14:07:58.248Z,2.30
2023-05-10T14:13:00.083Z,1.70
2023-05-10T14:18:02.036Z,1.70
2023-05-10T14:23:04.154Z,2.33
2023-05-10T14:28:05.999Z,2.20
2023-05-10T14:33:08.786Z,2.88
2023-05-10T14:38:11.715Z,2.60
2023-05-10T14:43:13.376Z,2.10
2023-05-10T14:48:18.184Z,2.55
2023-05-10T14:53:19.757Z,1.70
2023-05-10T14:58:21.339Z,2.20
2023-05-10T15:03:23.555Z,2.47
2023-05-10T15:08:25.850Z,1.80
2023-05-10T15:13:27.488Z,1.88
2023-05-10T15:18:29.093Z,2.05
2023-05-10T15:23:30.952Z,1.77
2023-05-10T15:28:34.292Z,1.92
2023-05-10T15:33:38.998Z,1.75
2023-05-10T15:38:41.001Z,1.50
2023-05-10T15:43:42.662Z,2.00
2023-05-10T15:48:44.462Z,1.75
2023-05-10T15:54:00.416Z,1.80
2023-05-10T15:59:08.721Z,2.20
2023-05-10T16:04:10.350Z,2.08
2023-05-10T16:09:12.042Z,2.33
2023-05-10T16:14:13.731Z,1.90
2023-05-10T16:19:16.124Z,2.63
2023-05-10T16:24:17.919Z,3.80
2023-05-10T16:29:19.576Z,3.63
2023-05-10T16:34:24.205Z,2.53
2023-05-10T16:39:26.197Z,2.45
2023-05-10T16:44:28.286Z,3.10
2023-05-10T16:49:29.951Z,2.90
2023-05-10T16:54:31.524Z,2.20
2023-05-10T16:59:33.128Z,2.50
2023-05-10T17:04:34.998Z,2.30
2023-05-10T17:09:36.673Z,2.00
2023-05-10T17:14:38.768Z,1.95
2023-05-10T17:19:40.548Z,1.95
2023-05-10T17:24:42.188Z,2.10
2023-05-10T17:29:43.902Z,2.00
2023-05-10T17:34:45.493Z,1.92
2023-05-10T17:39:47.089Z,1.83
2023-05-10T17:44:48.682Z,1.75
2023-05-10T17:49:50.434Z,1.30
2023-05-10T17:54:52.424Z,1.20
2023-05-10T17:59:54.127Z,1.02
2023-05-10T18:04:59.046Z,3.38
2023-05-10T18:10:01.505Z,2.77
2023-05-10T18:15:03.279Z,1.45
2023-05-10T18:20:06.125Z,0.98
2023-05-10T18:25:08.242Z,1.10
2023-05-10T18:30:12.256Z,1.00
2023-05-10T18:35:14.361Z,1.00
2023-05-10T18:40:17.508Z,1.58
2023-05-10T18:45:23.292Z,1.50
2023-05-10T18:50:59.010Z,1.60
2023-05-10T18:55:59.547Z,1.20
2023-05-10T19:01:03.707Z,1.60
2023-05-10T19:06:05.313Z,1.90
2023-05-10T19:11:06.919Z,1.25
2023-05-10T19:16:14.810Z,1.30
2023-05-10T19:21:17.219Z,1.40
2023-05-10T19:26:19.384Z,1.55
2023-05-10T19:31:21.851Z,1.60
2023-05-10T19:36:23.609Z,2.50
2023-05-10T19:41:25.535Z,2.30
2023-05-10T19:46:27.654Z,2.15
2023-05-10T19:51:29.318Z,2.28
2023-05-10T19:56:31.084Z,2.35
2023-05-10T20:01:33.531Z,2.47
2023-05-10T20:06:35.860Z,2.42
2023-05-10T20:11:37.519Z,2.00
2023-05-10T20:16:39.272Z,1.98
2023-05-10T20:21:41.107Z,2.13
2023-05-10T20:26:42.795Z,2.80
2023-05-10T20:31:44.516Z,2.75
2023-05-10T20:36:46.195Z,2.30
2023-05-10T20:41:48.043Z,3.17
2023-05-10T20:46:49.703Z,2.83
2023-05-10T20:51:51.557Z,3.25
2023-05-10T20:56:53.389Z,3.55
2023-05-10T21:01:55.943Z,2.70
2023-05-10T21:06:57.722Z,2.50
2023-05-10T21:11:59.459Z,2.55
2023-05-10T21:17:01.480Z,2.95
2023-05-10T21:22:03.431Z,2.63
2023-05-10T21:27:05.083Z,3.35
2023-05-10T21:32:06.756Z,3.30
2023-05-10T21:37:08.440Z,2.70
2023-05-10T21:42:10.056Z,3.05
2023-05-10T21:47:11.713Z,3.30
2023-05-10T21:52:13.319Z,3.58
2023-05-10T21:57:14.987Z,2.97
2023-05-10T22:02:16.654Z,2.85
2023-05-10T22:07:18.494Z,3.20
2023-05-10T22:12:20.301Z,3.00
2023-05-10T22:17:21.933Z,3.00
2023-05-10T22:22:23.650Z,3.15
2023-05-10T22:27:25.241Z,3.60
2023-05-10T22:32:31.534Z,3.40
2023-05-10T22:37:33.224Z,3.28
2023-05-10T22:42:34.886Z,3.58
2023-05-10T22:47:36.599Z,3.38
2023-05-10T22:52:39.347Z,3.70
2023-05-10T22:57:41.029Z,4.43
2023-05-10T23:02:43.188Z,3.55
2023-05-10T23:07:44.866Z,4.13
2023-05-10T23:12:46.460Z,3.97
2023-05-10T23:17:48.121Z,3.90
2023-05-10T23:22:49.749Z,4.15
2023-05-10T23:27:51.532Z,4.50
2023-05-10T23:32:53.161Z,3.90
2023-05-10T23:37:55.078Z,4.70
2023-05-10T23:42:56.741Z,4.68
2023-05-10T23:47:58.446Z,3.97
2023-05-10T23:53:00.141Z,3.92
2023-05-10T23:58:01.743Z,3.67
